createdAt,value
2017-03-12T00:00:36.015Z,7.69
2017-03-12T00:01:36.054Z,7.63
2017-03-12T00:02:36.053Z,7.67
2017-03-12T00:03:36.062Z,7.69
2017-03-12T00:04:36.085Z,7.57
2017-03-12T00:05:36.092Z,7.57
2017-03-12T00:06:36.107Z,7.67
2017-03-12T00:07:36.124Z,7.66
2017-03-12T00:08:36.146Z,7.67
2017-03-12T00:09:36.347Z,7.69
2017-03-12T00:10:36.152Z,7.58
2017-03-12T00:11:36.172Z,7.66
2017-03-12T00:12:36.183Z,7.58
2017-03-12T00:13:36.199Z,7.6
2017-03-12T00:14:36.206Z,7.67
2017-03-12T00:15:36.231Z,7.63
2017-03-12T00:16:36.228Z,7.56
2017-03-12T00:17:36.249Z,7.63
2017-03-12T00:18:35.870Z,7.56
2017-03-12T00:19:36.274Z,7.66
2017-03-12T00:20:36.290Z,7.63
2017-03-12T00:21:36.306Z,7.61
2017-03-12T00:22:36.320Z,7.61
2017-03-12T00:23:36.346Z,7.58
2017-03-12T00:24:36.351Z,7.57
2017-03-12T00:25:36.373Z,7.53
2017-03-12T00:26:36.380Z,7.56
2017-03-12T00:27:36.394Z,7.5
2017-03-12T00:28:36.413Z,7.5
2017-03-12T00:29:36.408Z,7.48
2017-03-12T00:30:36.429Z,7.5
2017-03-12T00:31:36.436Z,7.5
2017-03-12T00:32:36.471Z,7.47
2017-03-12T00:33:36.476Z,7.51
2017-03-12T00:34:36.485Z,7.56
2017-03-12T00:35:36.492Z,7.5
2017-03-12T00:36:36.508Z,7.5
2017-03-12T00:37:36.531Z,7.5
2017-03-12T00:38:36.530Z,7.5
2017-03-12T00:39:36.556Z,7.51
2017-03-12T00:40:36.574Z,7.48
2017-03-12T00:41:36.572Z,7.5
2017-03-12T00:42:36.580Z,7.53
2017-03-12T00:43:36.606Z,7.5
2017-03-12T00:44:36.617Z,7.51
2017-03-12T00:45:36.632Z,7.5
2017-03-12T00:46:36.651Z,7.39
2017-03-12T00:47:36.709Z,7.42
2017-03-12T00:48:36.677Z,7.5
2017-03-12T00:49:36.681Z,7.45
2017-03-12T00:50:36.699Z,7.47
2017-03-12T00:51:36.718Z,7.42
2017-03-12T00:52:36.715Z,7.4
2017-03-12T00:53:36.335Z,7.39
2017-03-12T00:54:36.770Z,7.43
2017-03-12T00:55:36.865Z,7.42
2017-03-12T00:56:36.805Z,7.5
2017-03-12T00:57:36.793Z,7.42
2017-03-12T00:58:36.798Z,7.43
2017-03-12T00:59:36.430Z,7.43
2017-03-12T01:00:36.858Z,7.38
2017-03-12T01:01:36.842Z,7.43
2017-03-12T01:02:36.866Z,7.38
2017-03-12T01:03:36.884Z,7.4
2017-03-12T01:04:36.916Z,7.47
2017-03-12T01:05:36.896Z,7.33
2017-03-12T01:06:36.910Z,7.4
2017-03-12T01:07:36.926Z,7.36
2017-03-12T01:08:36.948Z,7.31
2017-03-12T01:09:36.949Z,7.36
2017-03-12T01:10:36.967Z,7.38
2017-03-12T01:11:36.970Z,7.38
2017-03-12T01:12:36.998Z,7.32
2017-03-12T01:13:37.017Z,7.31
2017-03-12T01:14:37.018Z,7.32
2017-03-12T01:15:37.051Z,7.31
2017-03-12T01:16:37.052Z,7.29
2017-03-12T01:17:37.059Z,7.28
2017-03-12T01:18:37.129Z,7.23
2017-03-12T01:19:36.696Z,7.24
2017-03-12T01:20:37.099Z,7.25
2017-03-12T01:21:37.112Z,7.33
2017-03-12T01:22:37.130Z,7.36
2017-03-12T01:23:37.151Z,7.28
2017-03-12T01:24:37.161Z,7.24
2017-03-12T01:25:37.161Z,7.2
2017-03-12T01:26:37.190Z,7.32
2017-03-12T01:27:37.194Z,7.2
2017-03-12T01:28:37.207Z,7.32
2017-03-12T01:29:37.231Z,7.2
2017-03-12T01:30:37.241Z,7.32
2017-03-12T01:31:37.250Z,7.21
2017-03-12T01:32:37.265Z,7.2
2017-03-12T01:33:37.273Z,7.2
2017-03-12T01:34:37.287Z,7.24
2017-03-12T01:35:37.299Z,7.17
2017-03-12T01:36:37.313Z,7.18
2017-03-12T01:37:36.928Z,7.2
2017-03-12T01:38:37.366Z,7.23
2017-03-12T01:39:37.363Z,7.14
2017-03-12T01:40:36.969Z,7.13
2017-03-12T01:41:37.379Z,7.15
2017-03-12T01:42:37.397Z,7.14
2017-03-12T01:43:37.407Z,7.15
2017-03-12T01:44:37.420Z,7.18
2017-03-12T01:45:37.432Z,7.15
2017-03-12T01:46:37.450Z,7.21
2017-03-12T01:47:37.457Z,7.18
2017-03-12T01:48:37.478Z,7.17
2017-03-12T01:49:37.094Z,7.15
2017-03-12T01:50:37.498Z,7.18
2017-03-12T01:51:37.520Z,7.21
2017-03-12T01:52:37.548Z,7.17
2017-03-12T01:53:37.554Z,7.21
2017-03-12T01:54:37.154Z,7.18
2017-03-12T01:55:37.581Z,7.2
2017-03-12T01:56:37.592Z,7.17
2017-03-12T01:57:37.582Z,7.13
2017-03-12T01:58:37.609Z,7.06
2017-03-12T01:59:37.618Z,7.13
2017-03-12T02:00:37.625Z,7.15
2017-03-12T02:01:37.648Z,7.17
2017-03-12T02:02:37.667Z,7.15
2017-03-12T02:03:37.678Z,7.2
2017-03-12T02:04:37.690Z,7.15
2017-03-12T02:05:37.697Z,7.13
2017-03-12T02:06:37.318Z,7.07
2017-03-12T02:07:37.726Z,7.02
2017-03-12T02:08:37.334Z,7.05
2017-03-12T02:09:37.779Z,7.05
2017-03-12T02:10:37.765Z,7.1
2017-03-12T02:11:37.774Z,7.11
2017-03-12T02:12:37.782Z,7.1
2017-03-12T02:13:37.399Z,7.11
2017-03-12T02:14:37.425Z,7.02
2017-03-12T02:15:37.494Z,7.05
2017-03-12T02:16:37.440Z,7.03
2017-03-12T02:17:37.454Z,7.03
2017-03-12T02:18:37.482Z,7.07
2017-03-12T02:19:37.478Z,7.03
2017-03-12T02:20:37.900Z,7.05
2017-03-12T02:21:37.519Z,7.02
2017-03-12T02:22:37.932Z,7.07
2017-03-12T02:23:38.143Z,7.07
2017-03-12T02:24:37.939Z,7.02
2017-03-12T02:25:37.958Z,6.99
2017-03-12T02:26:37.968Z,7.03
2017-03-12T02:27:37.594Z,6.95
2017-03-12T02:28:37.606Z,7.03
2017-03-12T02:29:38.019Z,7.03
2017-03-12T02:30:38.029Z,6.97
2017-03-12T02:31:38.034Z,6.93
2017-03-12T02:32:38.055Z,6.88
2017-03-12T02:33:38.133Z,6.93
2017-03-12T02:34:38.075Z,6.95
2017-03-12T02:35:37.730Z,6.95
2017-03-12T02:36:37.713Z,6.97
2017-03-12T02:37:38.125Z,6.95
2017-03-12T02:38:38.126Z,6.96
2017-03-12T02:39:38.160Z,6.95
2017-03-12T02:40:38.153Z,6.93
2017-03-12T02:41:38.313Z,6.95
2017-03-12T02:42:38.192Z,6.93
2017-03-12T02:43:38.206Z,6.89
2017-03-12T02:44:37.834Z,6.88
2017-03-12T02:45:38.224Z,6.95
2017-03-12T02:46:38.242Z,6.92
2017-03-12T02:47:38.241Z,6.88
2017-03-12T02:48:38.249Z,6.88
2017-03-12T02:49:37.481Z,6.84
2017-03-12T02:50:37.881Z,6.88
2017-03-12T02:51:37.915Z,6.87
2017-03-12T02:52:38.390Z,6.88
2017-03-12T02:53:38.369Z,6.87
2017-03-12T02:54:37.928Z,6.88
2017-03-12T02:55:38.337Z,6.89
2017-03-12T02:56:38.363Z,6.81
2017-03-12T02:57:38.384Z,6.82
2017-03-12T02:58:38.400Z,6.81
2017-03-12T02:59:38.416Z,6.77
2017-03-12T03:00:38.426Z,6.85
2017-03-12T03:01:38.464Z,6.77
2017-03-12T03:02:38.441Z,6.81
2017-03-12T03:03:38.448Z,6.77
2017-03-12T03:04:38.458Z,6.77
2017-03-12T03:05:38.085Z,6.81
2017-03-12T03:06:38.503Z,6.84
2017-03-12T03:07:38.507Z,6.75
2017-03-12T03:08:38.518Z,6.84
2017-03-12T03:09:38.177Z,6.74
2017-03-12T03:10:38.547Z,6.78
2017-03-12T03:11:38.558Z,6.77
2017-03-12T03:12:38.573Z,6.7
2017-03-12T03:13:38.637Z,6.75
2017-03-12T03:14:38.601Z,6.75
2017-03-12T03:15:38.608Z,6.75
2017-03-12T03:16:38.617Z,6.77
2017-03-12T03:17:38.632Z,6.75
2017-03-12T03:18:38.643Z,6.66
2017-03-12T03:19:38.652Z,6.79
2017-03-12T03:20:38.817Z,6.67
2017-03-12T03:21:38.689Z,6.72
2017-03-12T03:22:38.709Z,6.69
2017-03-12T03:23:38.317Z,6.77
2017-03-12T03:24:38.721Z,6.66
2017-03-12T03:25:38.338Z,6.7
2017-03-12T03:26:38.752Z,6.7
2017-03-12T03:27:38.759Z,6.74
2017-03-12T03:28:38.771Z,6.7
2017-03-12T03:29:38.784Z,6.62
2017-03-12T03:30:38.896Z,6.69
2017-03-12T03:31:38.817Z,6.7
2017-03-12T03:32:38.823Z,6.62
2017-03-12T03:33:38.442Z,6.59
2017-03-12T03:34:38.462Z,6.72
2017-03-12T03:35:38.864Z,6.56
2017-03-12T03:36:38.895Z,6.62
2017-03-12T03:37:38.892Z,6.64
2017-03-12T03:38:38.899Z,6.6
2017-03-12T03:39:38.926Z,6.67
2017-03-12T03:40:38.923Z,6.6
2017-03-12T03:41:38.952Z,6.66
2017-03-12T03:42:38.953Z,6.64
2017-03-12T03:43:38.974Z,6.63
2017-03-12T03:44:39.000Z,6.66
2017-03-12T03:45:39.003Z,6.63
2017-03-12T03:46:39.161Z,6.64
2017-03-12T03:47:39.030Z,6.56
2017-03-12T03:48:39.030Z,6.6
2017-03-12T03:49:39.045Z,6.59
2017-03-12T03:50:39.050Z,6.49
2017-03-12T03:51:38.662Z,6.57
2017-03-12T03:52:39.075Z,6.69
2017-03-12T03:53:39.102Z,6.63
2017-03-12T03:54:39.130Z,6.62
2017-03-12T03:55:38.723Z,6.62
2017-03-12T03:56:38.743Z,6.62
2017-03-12T03:57:39.152Z,6.62
2017-03-12T03:58:39.153Z,6.49
2017-03-12T03:59:39.376Z,6.56
2017-03-12T04:00:39.177Z,6.56
2017-03-12T04:01:39.214Z,6.56
2017-03-12T04:02:39.243Z,6.6
2017-03-12T04:03:39.221Z,6.59
2017-03-12T04:04:38.833Z,6.52
2017-03-12T04:05:39.251Z,6.57
2017-03-12T04:06:39.261Z,6.52
2017-03-12T04:07:38.473Z,6.54
2017-03-12T04:08:39.290Z,6.54
2017-03-12T04:09:39.289Z,6.57
2017-03-12T04:10:39.319Z,6.57
2017-03-12T04:11:39.334Z,6.52
2017-03-12T04:12:39.328Z,6.52
2017-03-12T04:13:39.342Z,6.54
2017-03-12T04:14:39.369Z,6.54
2017-03-12T04:15:39.386Z,6.56
2017-03-12T04:16:39.383Z,6.51
2017-03-12T04:17:39.400Z,6.52
2017-03-12T04:18:39.415Z,6.48
2017-03-12T04:19:38.625Z,6.52
2017-03-12T04:20:39.433Z,6.45
2017-03-12T04:21:39.457Z,6.48
2017-03-12T04:22:39.454Z,6.45
2017-03-12T04:23:39.072Z,6.51
2017-03-12T04:24:39.494Z,6.48
2017-03-12T04:25:39.126Z,6.52
2017-03-12T04:26:39.526Z,6.42
2017-03-12T04:27:39.598Z,6.38
2017-03-12T04:28:39.530Z,6.33
2017-03-12T04:29:39.541Z,6.46
2017-03-12T04:30:39.177Z,6.35
2017-03-12T04:31:39.568Z,6.35
2017-03-12T04:32:39.585Z,6.31
2017-03-12T04:33:39.623Z,6.39
2017-03-12T04:34:39.610Z,6.38
2017-03-12T04:35:39.629Z,6.39
2017-03-12T04:36:39.641Z,6.38
2017-03-12T04:37:39.851Z,6.39
2017-03-12T04:38:39.669Z,6.33
2017-03-12T04:39:39.672Z,6.36
2017-03-12T04:40:39.683Z,6.38
2017-03-12T04:41:39.306Z,6.39
2017-03-12T04:42:39.716Z,6.3
2017-03-12T04:43:39.726Z,6.31
2017-03-12T04:44:39.731Z,6.27
2017-03-12T04:45:39.757Z,6.38
2017-03-12T04:46:39.759Z,6.3
2017-03-12T04:47:39.769Z,6.26
2017-03-12T04:48:39.835Z,6.22
2017-03-12T04:49:39.799Z,6.28
2017-03-12T04:50:39.945Z,6.26
2017-03-12T04:51:39.949Z,6.35
2017-03-12T04:52:39.950Z,6.24
2017-03-12T04:53:39.978Z,6.35
2017-03-12T04:54:39.966Z,6.22
2017-03-12T04:55:39.975Z,6.2
2017-03-12T04:56:39.966Z,6.2
2017-03-12T04:57:39.991Z,6.2
2017-03-12T04:58:39.994Z,6.26
2017-03-12T04:59:40.027Z,6.28
2017-03-12T05:00:40.007Z,6.14
2017-03-12T05:01:40.014Z,6.26
2017-03-12T05:02:40.056Z,6.16
2017-03-12T05:03:40.003Z,6.22
2017-03-12T05:04:40.010Z,6.17
2017-03-12T05:05:40.020Z,6.26
2017-03-12T05:06:40.009Z,6.09
2017-03-12T05:07:40.124Z,6.16
2017-03-12T05:08:40.026Z,6.12
2017-03-12T05:09:40.264Z,6.08
2017-03-12T05:10:40.049Z,6.16
2017-03-12T05:11:40.167Z,6.16
2017-03-12T05:12:40.099Z,6.12
2017-03-12T05:13:40.098Z,6.17
2017-03-12T05:14:40.113Z,6.08
2017-03-12T05:15:40.127Z,6.07
2017-03-12T05:16:40.127Z,6.19
2017-03-12T05:17:40.142Z,6.08
2017-03-12T05:18:39.776Z,6.02
2017-03-12T05:19:40.171Z,6.07
2017-03-12T05:20:40.179Z,6.02
2017-03-12T05:21:40.209Z,6.04
2017-03-12T05:22:40.199Z,6.09
2017-03-12T05:23:40.308Z,6.04
2017-03-12T05:24:40.240Z,6.02
2017-03-12T05:25:40.257Z,6.01
2017-03-12T05:26:40.247Z,5.99
2017-03-12T05:27:40.275Z,6.05
2017-03-12T05:28:40.381Z,5.99
2017-03-12T05:29:40.286Z,5.94
2017-03-12T05:30:40.326Z,5.94
2017-03-12T05:31:39.918Z,5.97
2017-03-12T05:32:40.332Z,5.94
2017-03-12T05:33:40.343Z,6.09
2017-03-12T05:34:54.879Z,5.94
2017-03-12T05:35:39.960Z,5.93
2017-03-12T05:36:39.974Z,5.98
2017-03-12T05:37:40.025Z,5.98
2017-03-12T05:38:40.401Z,5.99
2017-03-12T05:39:40.035Z,5.94
2017-03-12T05:40:40.522Z,5.98
2017-03-12T05:41:40.045Z,6.01
2017-03-12T05:42:40.053Z,5.98
2017-03-12T05:43:40.462Z,6.02
2017-03-12T05:44:40.490Z,5.94
2017-03-12T05:45:40.533Z,5.93
2017-03-12T05:46:40.518Z,5.89
2017-03-12T05:47:40.127Z,5.9
2017-03-12T05:48:40.531Z,5.91
2017-03-12T05:49:40.555Z,5.93
2017-03-12T05:50:40.555Z,5.98
2017-03-12T05:51:40.575Z,5.97
2017-03-12T05:52:40.181Z,5.9
2017-03-12T05:53:40.581Z,5.9
2017-03-12T05:54:40.597Z,5.93
2017-03-12T05:55:40.247Z,5.99
2017-03-12T05:56:40.624Z,5.99
2017-03-12T05:57:40.632Z,5.86
2017-03-12T05:58:40.658Z,5.91
2017-03-12T05:59:40.656Z,5.98
2017-03-12T06:00:40.687Z,5.93
2017-03-12T06:01:40.677Z,5.91
2017-03-12T06:02:40.708Z,5.91
2017-03-12T06:03:40.702Z,5.89
2017-03-12T06:04:40.713Z,5.89
2017-03-12T06:05:40.732Z,5.91
2017-03-12T06:06:40.750Z,5.91
2017-03-12T06:07:40.761Z,6.02
2017-03-12T06:08:40.762Z,5.94
2017-03-12T06:09:40.767Z,5.91
2017-03-12T06:10:40.784Z,5.89
2017-03-12T06:11:40.839Z,5.94
2017-03-12T06:12:40.817Z,5.89
2017-03-12T06:13:40.832Z,5.94
2017-03-12T06:14:40.835Z,5.97
2017-03-12T06:15:40.467Z,5.94
2017-03-12T06:16:40.883Z,5.99
2017-03-12T06:17:40.878Z,5.97
2017-03-12T06:18:40.983Z,6.02
2017-03-12T06:19:40.979Z,5.94
2017-03-12T06:20:41.141Z,5.93
2017-03-12T06:21:41.151Z,5.99
2017-03-12T06:22:41.158Z,5.99
2017-03-12T06:23:40.764Z,5.99
2017-03-12T06:24:41.152Z,5.98
2017-03-12T06:25:41.178Z,6.05
2017-03-12T06:26:41.184Z,5.94
2017-03-12T06:27:41.068Z,6.02
2017-03-12T06:28:41.196Z,6.02
2017-03-12T06:29:41.019Z,6.05
2017-03-12T06:30:41.032Z,5.98
2017-03-12T06:31:41.052Z,6.02
2017-03-12T06:32:41.085Z,6.01
2017-03-12T06:33:41.069Z,6.12
2017-03-12T06:34:41.081Z,6.04
2017-03-12T06:35:40.704Z,6.04
2017-03-12T06:36:41.103Z,6.08
2017-03-12T06:37:41.110Z,6.02
2017-03-12T06:38:41.141Z,6.05
2017-03-12T06:39:41.150Z,6.02
2017-03-12T06:40:40.783Z,6.07
2017-03-12T06:41:40.797Z,6.04
2017-03-12T06:42:41.173Z,6.05
2017-03-12T06:43:41.202Z,6.17
2017-03-12T06:44:41.199Z,6.14
2017-03-12T06:45:41.231Z,6.14
2017-03-12T06:46:41.222Z,6.14
2017-03-12T06:47:41.245Z,6.16
2017-03-12T06:48:41.251Z,6.09
2017-03-12T06:49:41.259Z,6.17
2017-03-12T06:50:41.270Z,6.17
2017-03-12T06:51:41.292Z,6.26
2017-03-12T06:52:41.292Z,6.24
2017-03-12T06:53:41.301Z,6.28
2017-03-12T06:54:41.497Z,6.28
2017-03-12T06:55:41.345Z,6.22
2017-03-12T06:56:41.343Z,6.26
2017-03-12T06:57:41.353Z,6.31
2017-03-12T06:58:41.410Z,6.3
2017-03-12T06:59:41.375Z,6.33
2017-03-12T07:00:41.402Z,6.26
2017-03-12T07:01:41.418Z,6.31
2017-03-12T07:02:41.420Z,6.3
2017-03-12T07:03:41.442Z,6.38
2017-03-12T07:04:41.077Z,6.36
2017-03-12T07:05:41.457Z,6.36
2017-03-12T07:06:41.487Z,6.33
2017-03-12T07:07:41.497Z,6.3
2017-03-12T07:08:41.518Z,6.39
2017-03-12T07:09:41.512Z,6.33
2017-03-12T07:10:41.507Z,6.38
2017-03-12T07:11:41.148Z,6.3
2017-03-12T07:12:41.591Z,6.51
2017-03-12T07:13:41.564Z,6.45
2017-03-12T07:14:41.614Z,6.44
2017-03-12T07:15:41.610Z,6.48
2017-03-12T07:16:41.186Z,6.45
2017-03-12T07:17:41.618Z,6.54
2017-03-12T07:18:41.625Z,6.44
2017-03-12T07:19:41.752Z,6.51
2017-03-12T07:20:41.249Z,6.54
2017-03-12T07:21:41.659Z,6.54
2017-03-12T07:22:40.867Z,6.54
2017-03-12T07:23:41.775Z,6.56
2017-03-12T07:24:41.807Z,6.54
2017-03-12T07:25:41.718Z,6.51
2017-03-12T07:26:41.786Z,6.52
2017-03-12T07:27:41.737Z,6.6
2017-03-12T07:28:41.733Z,6.48
2017-03-12T07:29:41.798Z,6.63
2017-03-12T07:30:41.758Z,6.57
2017-03-12T07:31:41.765Z,6.62
2017-03-12T07:32:41.796Z,6.64
2017-03-12T07:33:41.802Z,6.63
2017-03-12T07:34:41.824Z,6.62
2017-03-12T07:35:41.484Z,6.67
2017-03-12T07:36:41.856Z,6.7
2017-03-12T07:37:41.861Z,6.64
2017-03-12T07:38:41.869Z,6.66
2017-03-12T07:39:41.873Z,6.66
2017-03-12T07:40:42.082Z,6.63
2017-03-12T07:41:41.894Z,6.59
2017-03-12T07:42:41.911Z,6.6
2017-03-12T07:43:41.915Z,6.7
2017-03-12T07:44:41.934Z,6.59
2017-03-12T07:45:41.611Z,6.74
2017-03-12T07:46:41.611Z,6.7
2017-03-12T07:47:41.618Z,6.74
2017-03-12T07:48:41.980Z,6.7
2017-03-12T07:49:42.003Z,6.74
2017-03-12T07:50:42.696Z,6.74
2017-03-12T07:51:42.029Z,6.72
2017-03-12T07:52:42.030Z,6.7
2017-03-12T07:53:42.047Z,6.77
2017-03-12T07:54:41.710Z,6.79
2017-03-12T07:55:42.069Z,6.84
2017-03-12T07:56:42.082Z,6.78
2017-03-12T07:57:42.097Z,6.78
2017-03-12T07:58:42.109Z,6.88
2017-03-12T07:59:42.119Z,6.87
2017-03-12T08:00:42.142Z,6.88
2017-03-12T08:01:42.151Z,6.89
2017-03-12T08:02:42.168Z,6.89
2017-03-12T08:03:41.802Z,6.93
2017-03-12T08:04:42.189Z,6.95
2017-03-12T08:05:41.816Z,6.89
2017-03-12T08:06:41.813Z,6.97
2017-03-12T08:07:42.217Z,6.92
2017-03-12T08:08:41.849Z,7.03
2017-03-12T08:09:42.245Z,7.13
2017-03-12T08:10:42.261Z,7.1
2017-03-12T08:11:42.272Z,7.1
2017-03-12T08:12:41.886Z,7.14
2017-03-12T08:13:42.294Z,7.2
2017-03-12T08:14:42.322Z,7.18
2017-03-12T08:15:42.328Z,7.11
2017-03-12T08:16:41.953Z,7.2
2017-03-12T08:17:42.357Z,7.17
2017-03-12T08:18:42.368Z,7.21
2017-03-12T08:19:41.976Z,7.36
2017-03-12T08:20:42.385Z,7.33
2017-03-12T08:21:42.407Z,7.33
2017-03-12T08:22:42.420Z,7.48
2017-03-12T08:23:42.434Z,7.42
2017-03-12T08:24:42.430Z,7.42
2017-03-12T08:25:42.440Z,7.53
2017-03-12T08:26:42.460Z,7.61
2017-03-12T08:27:42.484Z,7.69
2017-03-12T08:28:42.108Z,7.69
2017-03-12T08:29:42.503Z,7.61
2017-03-12T08:30:42.516Z,7.66
2017-03-12T08:31:42.516Z,7.76
2017-03-12T08:32:42.531Z,7.8
2017-03-12T08:33:42.543Z,7.88
2017-03-12T08:34:42.571Z,7.94
2017-03-12T08:35:42.581Z,8.08
2017-03-12T08:36:42.594Z,8.05
2017-03-12T08:37:42.614Z,8
2017-03-12T08:38:42.623Z,8.15
2017-03-12T08:39:42.623Z,8.13
2017-03-12T08:40:42.643Z,8.27
2017-03-12T08:41:42.698Z,8.33
2017-03-12T08:42:42.668Z,8.34
2017-03-12T08:43:42.687Z,8.31
2017-03-12T08:44:42.747Z,8.38
2017-03-12T08:45:42.845Z,8.53
2017-03-12T08:46:42.745Z,8.6
2017-03-12T08:47:42.899Z,8.6
2017-03-12T08:48:42.838Z,8.7
2017-03-12T08:49:42.762Z,8.73
2017-03-12T08:50:42.779Z,8.76
2017-03-12T08:51:42.778Z,8.74
2017-03-12T08:52:42.790Z,8.78
2017-03-12T08:53:42.814Z,8.94
2017-03-12T08:54:42.826Z,9
2017-03-12T08:55:42.838Z,9
2017-03-12T08:56:42.878Z,9.13
2017-03-12T08:57:42.898Z,9.13
2017-03-12T08:58:42.868Z,9.22
2017-03-12T08:59:42.887Z,9.28
2017-03-12T09:00:42.910Z,9.32
2017-03-12T09:01:42.924Z,9.34
2017-03-12T09:02:42.928Z,9.4
2017-03-12T09:03:42.932Z,9.44
2017-03-12T09:04:42.996Z,9.54
2017-03-12T09:05:42.960Z,9.55
2017-03-12T09:06:42.987Z,9.65
2017-03-12T09:07:42.997Z,9.65
2017-03-12T09:08:42.627Z,9.66
2017-03-12T09:09:43.019Z,9.69
2017-03-12T09:10:43.032Z,9.79
2017-03-12T09:11:42.653Z,9.83
2017-03-12T09:12:43.054Z,9.92
2017-03-12T09:13:43.071Z,9.99
2017-03-12T09:14:43.090Z,10.12
2017-03-12T09:15:43.092Z,10.17
2017-03-12T09:16:43.112Z,10.16
2017-03-12T09:17:43.135Z,10.25
2017-03-12T09:18:43.150Z,10.31
2017-03-12T09:19:43.191Z,10.4
2017-03-12T09:20:43.167Z,10.38
2017-03-12T09:21:43.184Z,10.4
2017-03-12T09:22:43.206Z,10.4
2017-03-12T09:23:43.220Z,10.51
2017-03-12T09:24:43.239Z,10.54
2017-03-12T09:25:43.258Z,10.67
2017-03-12T09:26:43.260Z,10.59
2017-03-12T09:27:43.264Z,10.64
2017-03-12T09:28:43.286Z,10.75
2017-03-12T09:29:43.300Z,10.81
2017-03-12T09:30:43.317Z,10.75
2017-03-12T09:31:43.320Z,10.84
2017-03-12T09:32:42.948Z,10.84
2017-03-12T09:33:43.347Z,10.86
2017-03-12T09:34:43.373Z,10.96
2017-03-12T09:35:43.379Z,11
2017-03-12T09:36:43.001Z,10.97
2017-03-12T09:37:43.419Z,11.1
2017-03-12T09:38:43.423Z,11.19
2017-03-12T09:39:43.438Z,11.14
2017-03-12T09:40:43.462Z,11.19
2017-03-12T09:41:43.465Z,11.23
2017-03-12T09:42:43.506Z,11.27
2017-03-12T09:43:43.102Z,11.23
2017-03-12T09:44:43.516Z,11.35
2017-03-12T09:46:43.549Z,11.41
2017-03-12T09:47:43.556Z,11.45
2017-03-12T09:48:43.591Z,11.51
2017-03-12T09:49:43.594Z,11.43
2017-03-12T09:50:43.618Z,11.55
2017-03-12T09:51:43.621Z,11.65
2017-03-12T09:52:43.639Z,11.6
2017-03-12T09:53:43.653Z,11.63
2017-03-12T09:54:43.657Z,11.68
2017-03-12T09:55:43.674Z,11.63
2017-03-12T09:56:43.687Z,11.69
2017-03-12T09:57:43.720Z,11.81
2017-03-12T09:58:43.726Z,11.73
2017-03-12T09:59:43.733Z,11.77
2017-03-12T10:00:43.758Z,11.78
2017-03-12T10:01:43.775Z,11.73
2017-03-12T10:02:43.906Z,11.69
2017-03-12T10:03:44.023Z,11.83
2017-03-12T10:04:43.817Z,11.88
2017-03-12T10:05:43.838Z,11.88
2017-03-12T10:06:43.853Z,11.91
2017-03-12T10:07:43.858Z,11.83
2017-03-12T10:08:43.882Z,11.99
2017-03-12T10:09:43.891Z,11.9
2017-03-12T10:10:43.916Z,11.99
2017-03-12T10:11:43.919Z,12.02
2017-03-12T10:12:43.927Z,12
2017-03-12T10:13:43.950Z,11.97
2017-03-12T10:14:43.959Z,12.09
2017-03-12T10:15:43.970Z,12.1
2017-03-12T10:16:43.999Z,12.06
2017-03-12T10:17:44.003Z,12.13
2017-03-12T10:18:44.015Z,12.13
2017-03-12T10:19:44.045Z,12.17
2017-03-12T10:20:44.174Z,12.29
2017-03-12T10:21:44.183Z,12.28
2017-03-12T10:22:44.181Z,12.27
2017-03-12T10:23:44.214Z,12.29
2017-03-12T10:24:44.347Z,12.39
2017-03-12T10:25:44.231Z,12.47
2017-03-12T10:26:44.242Z,12.45
2017-03-12T10:27:43.772Z,12.47
2017-03-12T10:28:44.208Z,12.49
2017-03-12T10:29:44.227Z,12.46
2017-03-12T10:30:44.246Z,12.54
2017-03-12T10:31:44.254Z,12.62
2017-03-12T10:32:44.343Z,12.62
2017-03-12T10:33:44.351Z,12.62
2017-03-12T10:34:44.362Z,12.64
2017-03-12T10:35:44.359Z,12.67
2017-03-12T10:36:44.367Z,12.67
2017-03-12T10:37:44.378Z,12.73
2017-03-12T10:38:44.386Z,12.85
2017-03-12T10:39:44.394Z,12.82
2017-03-12T10:40:44.393Z,12.85
2017-03-12T10:41:44.401Z,12.87
2017-03-12T10:42:44.413Z,12.97
2017-03-12T10:43:44.420Z,13.01
2017-03-12T10:44:44.437Z,13.04
2017-03-12T10:45:44.466Z,13.05
2017-03-12T10:46:44.475Z,13.08
2017-03-12T10:47:44.488Z,13.19
2017-03-12T10:48:44.508Z,13.2
2017-03-12T10:49:44.193Z,13.15
2017-03-12T10:50:44.200Z,13.16
2017-03-12T10:51:44.551Z,13.2
2017-03-12T10:52:44.640Z,13.22
2017-03-12T10:53:44.596Z,13.31
2017-03-12T10:54:44.602Z,13.35
2017-03-12T10:55:44.613Z,13.46
2017-03-12T10:56:44.623Z,13.47
2017-03-12T10:57:44.652Z,13.47
2017-03-12T10:58:44.321Z,13.56
2017-03-12T10:59:44.675Z,13.52
2017-03-12T11:00:44.701Z,13.62
2017-03-12T11:01:44.727Z,13.7
2017-03-12T11:02:44.734Z,13.68
2017-03-12T11:03:44.355Z,13.77
2017-03-12T11:04:44.777Z,13.75
2017-03-12T11:05:44.770Z,13.83
2017-03-12T11:06:44.787Z,13.9
2017-03-12T11:07:44.816Z,13.9
2017-03-12T11:08:44.841Z,13.85
2017-03-12T11:09:44.848Z,13.9
2017-03-12T11:10:44.877Z,13.99
2017-03-12T11:11:44.878Z,13.99
2017-03-12T11:12:44.895Z,14.03
2017-03-12T11:13:44.920Z,14.08
2017-03-12T11:14:44.929Z,14.03
2017-03-12T11:15:44.944Z,14.12
2017-03-12T11:16:44.958Z,14.14
2017-03-12T11:17:44.985Z,14.15
2017-03-12T11:18:45.000Z,14.2
2017-03-12T11:19:45.011Z,14.04
2017-03-12T11:20:45.030Z,14.23
2017-03-12T11:21:45.044Z,14.14
2017-03-12T11:22:44.411Z,14.12
2017-03-12T11:23:45.079Z,14.17
2017-03-12T11:24:45.099Z,14.2
2017-03-12T11:25:45.166Z,14.17
2017-03-12T11:26:45.133Z,14.18
2017-03-12T11:27:45.155Z,14.3
2017-03-12T11:28:45.172Z,14.28
2017-03-12T11:29:45.183Z,14.33
2017-03-12T11:30:45.199Z,14.33
2017-03-12T11:31:45.231Z,14.37
2017-03-12T11:32:45.238Z,14.47
2017-03-12T11:33:45.270Z,14.47
2017-03-12T11:34:45.277Z,14.4
2017-03-12T11:35:45.295Z,14.48
2017-03-12T11:36:45.312Z,14.5
2017-03-12T11:37:45.327Z,14.53
2017-03-12T11:38:45.341Z,14.47
2017-03-12T11:39:45.354Z,14.55
2017-03-12T11:40:45.385Z,14.48
2017-03-12T11:41:45.396Z,14.59
2017-03-12T11:42:45.435Z,14.59
2017-03-12T11:43:45.429Z,14.62
2017-03-12T11:44:45.449Z,14.66
2017-03-12T11:45:45.483Z,14.62
2017-03-12T11:46:45.483Z,14.62
2017-03-12T11:47:45.497Z,14.65
2017-03-12T11:48:45.535Z,14.69
2017-03-12T11:49:45.557Z,14.69
2017-03-12T11:50:45.162Z,14.73
2017-03-12T11:51:45.171Z,14.77
2017-03-12T11:52:45.585Z,14.69
2017-03-12T11:53:45.607Z,14.7
2017-03-12T11:54:45.629Z,14.77
2017-03-12T11:55:45.264Z,14.65
2017-03-12T11:56:45.259Z,14.77
2017-03-12T11:57:45.679Z,14.72
2017-03-12T11:58:45.704Z,14.72
2017-03-12T11:59:45.723Z,14.79
2017-03-12T12:00:45.333Z,14.7
2017-03-12T12:01:45.762Z,14.77
2017-03-12T12:02:45.782Z,14.84
2017-03-12T12:03:45.797Z,14.84
2017-03-12T12:04:45.803Z,14.94
2017-03-12T12:05:45.822Z,14.84
2017-03-12T12:06:45.838Z,14.88
2017-03-12T12:07:45.872Z,14.91
2017-03-12T12:08:46.187Z,14.88
2017-03-12T12:09:45.904Z,14.81
2017-03-12T12:10:45.927Z,14.79
2017-03-12T12:11:45.948Z,14.81
2017-03-12T12:12:45.963Z,14.81
2017-03-12T12:13:45.973Z,14.84
2017-03-12T12:14:45.987Z,14.79
2017-03-12T12:15:46.008Z,14.81
2017-03-12T12:16:46.028Z,14.78
2017-03-12T12:17:46.071Z,14.84
2017-03-12T12:18:46.196Z,14.86
2017-03-12T12:19:46.168Z,14.94
2017-03-12T12:20:46.173Z,14.94
2017-03-12T12:21:46.173Z,14.99
2017-03-12T12:22:46.213Z,14.92
2017-03-12T12:23:46.190Z,15
2017-03-12T12:24:46.199Z,14.99
2017-03-12T12:25:46.210Z,15.02
2017-03-12T12:26:46.342Z,14.94
2017-03-12T12:27:46.228Z,14.96
2017-03-12T12:28:46.359Z,15.03
2017-03-12T12:29:46.369Z,15.06
2017-03-12T12:30:46.377Z,15.03
2017-03-12T12:31:46.313Z,15.06
2017-03-12T12:32:46.424Z,15
2017-03-12T12:33:46.328Z,15.02
2017-03-12T12:34:46.443Z,15.1
2017-03-12T12:35:46.447Z,15.17
2017-03-12T12:36:46.506Z,15.1
2017-03-12T12:37:46.522Z,15.18
2017-03-12T12:38:46.512Z,15.15
2017-03-12T12:39:46.539Z,15.11
2017-03-12T12:40:46.550Z,15.1
2017-03-12T12:41:46.568Z,15
2017-03-12T12:42:46.739Z,15.06
2017-03-12T12:43:46.666Z,15.06
2017-03-12T12:44:46.676Z,15.1
2017-03-12T12:45:46.672Z,15.06
2017-03-12T12:46:46.682Z,15.04
2017-03-12T12:47:46.688Z,15.1
2017-03-12T12:48:46.832Z,15.15
2017-03-12T12:49:46.841Z,15.07
2017-03-12T12:50:46.443Z,15.27
2017-03-12T12:51:46.851Z,15.17
2017-03-12T12:52:46.862Z,15.19
2017-03-12T12:53:46.843Z,15.21
2017-03-12T12:54:46.850Z,15.21
2017-03-12T12:55:46.858Z,15.27
2017-03-12T12:56:46.869Z,15.22
2017-03-12T12:57:46.869Z,15.18
2017-03-12T12:58:46.875Z,15.17
2017-03-12T12:59:46.856Z,15.25
2017-03-12T13:00:46.879Z,15.17
2017-03-12T13:01:46.858Z,15.18
2017-03-12T13:02:46.878Z,15.11
2017-03-12T13:03:46.892Z,15.1
2017-03-12T13:04:46.919Z,15.17
2017-03-12T13:05:46.944Z,15.19
2017-03-12T13:06:46.963Z,15.22
2017-03-12T13:07:46.976Z,15.11
2017-03-12T13:08:47.000Z,15.21
2017-03-12T13:09:46.712Z,15.25
2017-03-12T13:10:47.067Z,15.21
2017-03-12T13:11:47.047Z,15.18
2017-03-12T13:12:47.071Z,15.27
2017-03-12T13:13:46.779Z,15.18
2017-03-12T13:14:47.110Z,15.29
2017-03-12T13:15:47.122Z,15.29